sensor_id;sensor_type;location;lat;lon;timestamp;P1;durP1;ratioP1;P2;durP2;ratioP2
64986;SDS011;67903;52.108;9.358;2023-04-25T00:02:36;7.05;;;4.97;;
64986;SDS011;67903;52.108;9.358;2023-04-25T00:05:23;8.05;;;5.53;;
64986;SDS011;67903;52.108;9.358;2023-04-25T00:08:10;12.05;;;5.90;;
64986;SDS011;67903;52.108;9.358;2023-04-25T00:10:58;9.75;;;4.90;;
64986;SDS011;67903;52.108;9.358;2023-04-25T00:13:45;9.73;;;6.22;;
64986;SDS011;67903;52.108;9.358;2023-04-25T00:16:33;9.35;;;6.18;;
64986;SDS011;67903;52.108;9.358;2023-04-25T00:19:21;10.32;;;6.88;;
64986;SDS011;67903;52.108;9.358;2023-04-25T00:22:08;15.07;;;7.35;;
64986;SDS011;67903;52.108;9.358;2023-04-25T00:24:55;16.70;;;7.20;;
64986;SDS011;67903;52.108;9.358;2023-04-25T00:27:43;15.60;;;6.32;;
64986;SDS011;67903;52.108;9.358;2023-04-25T00:30:31;11.60;;;6.13;;
64986;SDS011;67903;52.108;9.358;2023-04-25T00:33:18;13.02;;;7.13;;
64986;SDS011;67903;52.108;9.358;2023-04-25T00:36:06;9.88;;;6.40;;
64986;SDS011;67903;52.108;9.358;2023-04-25T00:38:53;10.70;;;6.43;;
64986;SDS011;67903;52.108;9.358;2023-04-25T00:41:41;11.73;;;6.50;;
64986;SDS011;67903;52.108;9.358;2023-04-25T00:44:29;9.57;;;6.35;;
64986;SDS011;67903;52.108;9.358;2023-04-25T00:47:18;11.48;;;6.55;;
64986;SDS011;67903;52.108;9.358;2023-04-25T00:50:06;10.43;;;6.65;;
64986;SDS011;67903;52.108;9.358;2023-04-25T00:52:54;9.93;;;6.03;;
64986;SDS011;67903;52.108;9.358;2023-04-25T00:55:41;14.52;;;6.68;;
64986;SDS011;67903;52.108;9.358;2023-04-25T00:58:28;12.65;;;7.28;;
64986;SDS011;67903;52.108;9.358;2023-04-25T01:01:15;9.63;;;6.78;;
64986;SDS011;67903;52.108;9.358;2023-04-25T01:04:03;12.23;;;6.68;;
64986;SDS011;67903;52.108;9.358;2023-04-25T01:06:50;14.82;;;7.25;;
64986;SDS011;67903;52.108;9.358;2023-04-25T01:09:38;11.32;;;6.65;;
64986;SDS011;67903;52.108;9.358;2023-04-25T01:12:25;11.65;;;7.13;;
64986;SDS011;67903;52.108;9.358;2023-04-25T01:15:12;14.13;;;7.50;;
64986;SDS011;67903;52.108;9.358;2023-04-25T01:17:59;12.73;;;7.40;;
64986;SDS011;67903;52.108;9.358;2023-04-25T01:20:47;15.35;;;6.95;;
64986;SDS011;67903;52.108;9.358;2023-04-25T01:23:38;12.32;;;7.43;;
64986;SDS011;67903;52.108;9.358;2023-04-25T01:26:26;10.90;;;7.20;;
64986;SDS011;67903;52.108;9.358;2023-04-25T01:29:14;12.63;;;7.32;;
64986;SDS011;67903;52.108;9.358;2023-04-25T01:32:02;10.05;;;6.78;;
64986;SDS011;67903;52.108;9.358;2023-04-25T01:34:50;13.77;;;7.15;;
64986;SDS011;67903;52.108;9.358;2023-04-25T01:37:39;11.23;;;6.75;;
64986;SDS011;67903;52.108;9.358;2023-04-25T01:40:28;13.35;;;7.22;;
64986;SDS011;67903;52.108;9.358;2023-04-25T01:43:16;11.13;;;7.20;;
64986;SDS011;67903;52.108;9.358;2023-04-25T01:46:04;11.95;;;7.22;;
64986;SDS011;67903;52.108;9.358;2023-04-25T01:48:51;10.88;;;6.82;;
64986;SDS011;67903;52.108;9.358;2023-04-25T01:51:39;12.32;;;6.88;;
64986;SDS011;67903;52.108;9.358;2023-04-25T01:54:26;13.85;;;7.68;;
64986;SDS011;67903;52.108;9.358;2023-04-25T01:57:14;10.80;;;7.88;;
64986;SDS011;67903;52.108;9.358;2023-04-25T02:00:03;14.18;;;8.07;;
64986;SDS011;67903;52.108;9.358;2023-04-25T02:02:59;9.65;;;7.82;;
64986;SDS011;67903;52.108;9.358;2023-04-25T02:05:50;14.23;;;8.75;;
64986;SDS011;67903;52.108;9.358;2023-04-25T02:08:38;12.85;;;8.05;;
64986;SDS011;67903;52.108;9.358;2023-04-25T02:11:25;12.95;;;7.43;;
64986;SDS011;67903;52.108;9.358;2023-04-25T02:14:27;15.95;;;7.60;;
64986;SDS011;67903;52.108;9.358;2023-04-25T02:17:23;9.45;;;6.93;;
64986;SDS011;67903;52.108;9.358;2023-04-25T02:20:10;11.98;;;7.65;;
64986;SDS011;67903;52.108;9.358;2023-04-25T02:22:58;11.20;;;8.10;;
64986;SDS011;67903;52.108;9.358;2023-04-25T02:25:47;12.07;;;8.00;;
64986;SDS011;67903;52.108;9.358;2023-04-25T02:28:34;15.02;;;7.55;;
64986;SDS011;67903;52.108;9.358;2023-04-25T02:31:23;15.65;;;7.85;;
64986;SDS011;67903;52.108;9.358;2023-04-25T02:34:11;12.40;;;7.30;;
64986;SDS011;67903;52.108;9.358;2023-04-25T02:36:58;13.43;;;7.43;;
64986;SDS011;67903;52.108;9.358;2023-04-25T02:39:45;15.95;;;7.13;;
64986;SDS011;67903;52.108;9.358;2023-04-25T02:42:32;9.35;;;6.65;;
64986;SDS011;67903;52.108;9.358;2023-04-25T02:45:19;15.50;;;8.05;;
64986;SDS011;67903;52.108;9.358;2023-04-25T02:48:06;12.27;;;5.82;;
64986;SDS011;67903;52.108;9.358;2023-04-25T02:50:54;11.57;;;6.10;;
64986;SDS011;67903;52.108;9.358;2023-04-25T02:53:41;15.10;;;6.20;;
64986;SDS011;67903;52.108;9.358;2023-04-25T02:56:28;13.25;;;5.65;;
64986;SDS011;67903;52.108;9.358;2023-04-25T02:59:16;16.42;;;6.03;;
64986;SDS011;67903;52.108;9.358;2023-04-25T03:02:03;9.70;;;5.65;;
64986;SDS011;67903;52.108;9.358;2023-04-25T03:04:50;12.93;;;5.22;;
64986;SDS011;67903;52.108;9.358;2023-04-25T03:07:38;11.48;;;5.93;;
64986;SDS011;67903;52.108;9.358;2023-04-25T03:10:26;11.73;;;5.55;;
64986;SDS011;67903;52.108;9.358;2023-04-25T03:13:15;16.10;;;6.45;;
64986;SDS011;67903;52.108;9.358;2023-04-25T03:16:03;12.63;;;5.53;;
64986;SDS011;67903;52.108;9.358;2023-04-25T03:18:50;8.45;;;4.72;;
64986;SDS011;67903;52.108;9.358;2023-04-25T03:21:37;13.75;;;5.18;;
64986;SDS011;67903;52.108;9.358;2023-04-25T03:24:24;14.45;;;5.90;;
64986;SDS011;67903;52.108;9.358;2023-04-25T03:27:13;14.75;;;6.18;;
64986;SDS011;67903;52.108;9.358;2023-04-25T03:30:00;9.88;;;4.63;;
64986;SDS011;67903;52.108;9.358;2023-04-25T03:32:47;15.57;;;4.78;;
64986;SDS011;67903;52.108;9.358;2023-04-25T03:35:36;15.52;;;5.20;;
64986;SDS011;67903;52.108;9.358;2023-04-25T03:38:23;14.40;;;5.22;;
64986;SDS011;67903;52.108;9.358;2023-04-25T03:41:10;19.25;;;5.57;;
64986;SDS011;67903;52.108;9.358;2023-04-25T03:44:01;13.25;;;5.05;;
64986;SDS011;67903;52.108;9.358;2023-04-25T03:46:49;15.77;;;5.10;;
64986;SDS011;67903;52.108;9.358;2023-04-25T03:49:36;21.05;;;5.72;;
64986;SDS011;67903;52.108;9.358;2023-04-25T03:52:25;14.27;;;5.70;;
64986;SDS011;67903;52.108;9.358;2023-04-25T03:55:13;17.50;;;5.30;;
64986;SDS011;67903;52.108;9.358;2023-04-25T03:58:00;12.52;;;5.70;;
64986;SDS011;67903;52.108;9.358;2023-04-25T04:00:47;11.57;;;5.43;;
64986;SDS011;67903;52.108;9.358;2023-04-25T04:03:34;18.48;;;6.13;;
64986;SDS011;67903;52.108;9.358;2023-04-25T04:06:23;16.08;;;5.35;;
64986;SDS011;67903;52.108;9.358;2023-04-25T04:09:17;12.88;;;5.10;;
64986;SDS011;67903;52.108;9.358;2023-04-25T04:12:05;16.88;;;5.80;;
64986;SDS011;67903;52.108;9.358;2023-04-25T04:14:54;14.77;;;5.80;;
64986;SDS011;67903;52.108;9.358;2023-04-25T04:17:41;13.88;;;5.90;;
64986;SDS011;67903;52.108;9.358;2023-04-25T04:20:29;21.02;;;6.25;;
64986;SDS011;67903;52.108;9.358;2023-04-25T04:23:20;18.15;;;6.60;;
64986;SDS011;67903;52.108;9.358;2023-04-25T04:26:07;29.75;;;14.32;;
64986;SDS011;67903;52.108;9.358;2023-04-25T04:29:13;38.80;;;25.00;;
64986;SDS011;67903;52.108;9.358;2023-04-25T04:32:18;19.00;;;9.10;;
64986;SDS011;67903;52.108;9.358;2023-04-25T04:35:05;13.63;;;6.10;;
64986;SDS011;67903;52.108;9.358;2023-04-25T04:37:53;26.52;;;10.95;;
64986;SDS011;67903;52.108;9.358;2023-04-25T04:40:42;17.15;;;5.53;;
64986;SDS011;67903;52.108;9.358;2023-04-25T04:43:35;13.63;;;4.80;;
64986;SDS011;67903;52.108;9.358;2023-04-25T04:46:41;17.75;;;4.85;;
64986;SDS011;67903;52.108;9.358;2023-04-25T04:49:58;13.18;;;5.20;;
64986;SDS011;67903;52.108;9.358;2023-04-25T04:53:03;17.08;;;6.18;;
64986;SDS011;67903;52.108;9.358;2023-04-25T04:55:56;12.43;;;6.00;;
64986;SDS011;67903;52.108;9.358;2023-04-25T04:59:02;20.95;;;8.18;;
64986;SDS011;67903;52.108;9.358;2023-04-25T05:02:00;17.08;;;8.38;;
64986;SDS011;67903;52.108;9.358;2023-04-25T05:05:05;19.17;;;7.05;;
64986;SDS011;67903;52.108;9.358;2023-04-25T05:08:31;18.90;;;5.75;;
64986;SDS011;67903;52.108;9.358;2023-04-25T05:11:51;12.43;;;4.97;;
64986;SDS011;67903;52.108;9.358;2023-04-25T05:14:48;20.35;;;5.57;;
64986;SDS011;67903;52.108;9.358;2023-04-25T05:18:01;15.38;;;5.90;;
64986;SDS011;67903;52.108;9.358;2023-04-25T05:21:06;12.88;;;6.05;;
64986;SDS011;67903;52.108;9.358;2023-04-25T05:24:00;13.02;;;4.80;;
64986;SDS011;67903;52.108;9.358;2023-04-25T05:27:17;15.27;;;5.10;;
64986;SDS011;67903;52.108;9.358;2023-04-25T05:30:25;11.13;;;4.18;;
64986;SDS011;67903;52.108;9.358;2023-04-25T05:33:22;18.33;;;5.10;;
64986;SDS011;67903;52.108;9.358;2023-04-25T05:36:09;15.30;;;5.07;;
64986;SDS011;67903;52.108;9.358;2023-04-25T05:38:57;16.08;;;4.85;;
64986;SDS011;67903;52.108;9.358;2023-04-25T05:42:04;14.68;;;4.18;;
64986;SDS011;67903;52.108;9.358;2023-04-25T05:45:10;11.32;;;5.07;;
64986;SDS011;67903;52.108;9.358;2023-04-25T05:48:09;11.90;;;4.40;;
64986;SDS011;67903;52.108;9.358;2023-04-25T05:51:14;13.68;;;4.45;;
64986;SDS011;67903;52.108;9.358;2023-04-25T05:54:25;11.90;;;5.03;;
64986;SDS011;67903;52.108;9.358;2023-04-25T05:57:24;11.43;;;3.42;;
64986;SDS011;67903;52.108;9.358;2023-04-25T06:00:14;8.43;;;4.10;;
64986;SDS011;67903;52.108;9.358;2023-04-25T06:03:04;13.65;;;4.47;;
64986;SDS011;67903;52.108;9.358;2023-04-25T06:05:51;12.85;;;4.43;;
64986;SDS011;67903;52.108;9.358;2023-04-25T06:08:39;14.27;;;3.80;;
64986;SDS011;67903;52.108;9.358;2023-04-25T06:11:30;15.88;;;5.10;;
64986;SDS011;67903;52.108;9.358;2023-04-25T06:14:17;16.40;;;4.40;;
64986;SDS011;67903;52.108;9.358;2023-04-25T06:17:08;13.80;;;4.97;;
64986;SDS011;67903;52.108;9.358;2023-04-25T06:19:55;12.38;;;4.03;;
64986;SDS011;67903;52.108;9.358;2023-04-25T06:22:42;13.30;;;5.07;;
64986;SDS011;67903;52.108;9.358;2023-04-25T06:25:29;11.07;;;4.28;;
64986;SDS011;67903;52.108;9.358;2023-04-25T06:28:17;10.93;;;3.90;;
64986;SDS011;67903;52.108;9.358;2023-04-25T06:31:04;11.07;;;4.05;;
64986;SDS011;67903;52.108;9.358;2023-04-25T06:33:51;12.77;;;4.10;;
64986;SDS011;67903;52.108;9.358;2023-04-25T06:36:42;13.68;;;4.10;;
64986;SDS011;67903;52.108;9.358;2023-04-25T06:39:34;10.35;;;3.45;;
64986;SDS011;67903;52.108;9.358;2023-04-25T06:42:24;12.50;;;3.80;;
64986;SDS011;67903;52.108;9.358;2023-04-25T06:45:16;10.07;;;4.10;;
64986;SDS011;67903;52.108;9.358;2023-04-25T06:48:04;15.13;;;4.32;;
64986;SDS011;67903;52.108;9.358;2023-04-25T06:50:51;13.18;;;4.55;;
64986;SDS011;67903;52.108;9.358;2023-04-25T06:53:39;10.52;;;3.60;;
64986;SDS011;67903;52.108;9.358;2023-04-25T06:56:30;13.30;;;3.72;;
64986;SDS011;67903;52.108;9.358;2023-04-25T06:59:23;10.07;;;3.58;;
64986;SDS011;67903;52.108;9.358;2023-04-25T07:02:10;12.40;;;3.25;;
64986;SDS011;67903;52.108;9.358;2023-04-25T07:04:58;9.25;;;3.20;;
64986;SDS011;67903;52.108;9.358;2023-04-25T07:07:46;7.63;;;2.95;;
64986;SDS011;67903;52.108;9.358;2023-04-25T07:10:33;9.98;;;3.75;;
64986;SDS011;67903;52.108;9.358;2023-04-25T07:13:21;12.88;;;3.40;;
64986;SDS011;67903;52.108;9.358;2023-04-25T07:16:08;10.75;;;3.25;;
64986;SDS011;67903;52.108;9.358;2023-04-25T07:18:56;9.07;;;3.35;;
64986;SDS011;67903;52.108;9.358;2023-04-25T07:21:43;9.23;;;3.35;;
64986;SDS011;67903;52.108;9.358;2023-04-25T07:24:31;7.80;;;2.63;;
64986;SDS011;67903;52.108;9.358;2023-04-25T07:27:19;9.68;;;3.00;;
64986;SDS011;67903;52.108;9.358;2023-04-25T07:30:13;11.80;;;4.82;;
64986;SDS011;67903;52.108;9.358;2023-04-25T07:33:01;12.40;;;2.95;;
64986;SDS011;67903;52.108;9.358;2023-04-25T07:35:48;8.63;;;2.95;;
64986;SDS011;67903;52.108;9.358;2023-04-25T07:38:36;9.95;;;3.53;;
64986;SDS011;67903;52.108;9.358;2023-04-25T07:41:23;15.13;;;3.08;;
64986;SDS011;67903;52.108;9.358;2023-04-25T07:44:11;10.70;;;3.30;;
64986;SDS011;67903;52.108;9.358;2023-04-25T07:46:59;6.97;;;3.30;;
64986;SDS011;67903;52.108;9.358;2023-04-25T07:49:50;8.55;;;3.10;;
64986;SDS011;67903;52.108;9.358;2023-04-25T07:52:37;12.25;;;3.38;;
64986;SDS011;67903;52.108;9.358;2023-04-25T07:55:36;10.13;;;2.92;;
64986;SDS011;67903;52.108;9.358;2023-04-25T07:58:32;11.30;;;3.22;;
64986;SDS011;67903;52.108;9.358;2023-04-25T08:01:22;9.25;;;3.20;;
64986;SDS011;67903;52.108;9.358;2023-04-25T08:04:16;8.65;;;3.03;;
64986;SDS011;67903;52.108;9.358;2023-04-25T08:07:18;11.73;;;2.70;;
64986;SDS011;67903;52.108;9.358;2023-04-25T08:10:10;6.15;;;2.60;;
64986;SDS011;67903;52.108;9.358;2023-04-25T08:12:59;10.52;;;2.80;;
64986;SDS011;67903;52.108;9.358;2023-04-25T08:15:46;6.32;;;2.33;;
64986;SDS011;67903;52.108;9.358;2023-04-25T08:18:33;7.03;;;2.63;;
64986;SDS011;67903;52.108;9.358;2023-04-25T08:21:21;6.45;;;2.63;;
64986;SDS011;67903;52.108;9.358;2023-04-25T08:24:08;12.32;;;3.35;;
64986;SDS011;67903;52.108;9.358;2023-04-25T08:26:58;8.07;;;2.58;;
64986;SDS011;67903;52.108;9.358;2023-04-25T08:29:47;6.32;;;2.45;;
64986;SDS011;67903;52.108;9.358;2023-04-25T08:32:34;7.03;;;2.95;;
64986;SDS011;67903;52.108;9.358;2023-04-25T08:35:54;8.70;;;2.42;;
64986;SDS011;67903;52.108;9.358;2023-04-25T08:38:41;10.75;;;3.13;;
64986;SDS011;67903;52.108;9.358;2023-04-25T08:41:30;8.90;;;2.08;;
64986;SDS011;67903;52.108;9.358;2023-04-25T08:44:17;6.50;;;2.58;;
64986;SDS011;67903;52.108;9.358;2023-04-25T08:47:06;9.77;;;2.50;;
64986;SDS011;67903;52.108;9.358;2023-04-25T08:50:02;11.20;;;2.67;;
64986;SDS011;67903;52.108;9.358;2023-04-25T08:52:50;4.70;;;2.22;;
64986;SDS011;67903;52.108;9.358;2023-04-25T08:55:40;7.82;;;2.65;;
64986;SDS011;67903;52.108;9.358;2023-04-25T08:58:29;8.93;;;2.45;;
64986;SDS011;67903;52.108;9.358;2023-04-25T09:01:18;5.82;;;2.60;;
64986;SDS011;67903;52.108;9.358;2023-04-25T09:04:11;9.48;;;3.45;;
64986;SDS011;67903;52.108;9.358;2023-04-25T09:07:00;6.60;;;2.40;;
64986;SDS011;67903;52.108;9.358;2023-04-25T09:09:48;8.75;;;3.13;;
64986;SDS011;67903;52.108;9.358;2023-04-25T09:12:38;10.00;;;2.25;;
64986;SDS011;67903;52.108;9.358;2023-04-25T09:15:27;10.05;;;2.78;;
64986;SDS011;67903;52.108;9.358;2023-04-25T09:18:34;10.88;;;2.85;;
64986;SDS011;67903;52.108;9.358;2023-04-25T09:21:22;8.15;;;2.10;;
64986;SDS011;67903;52.108;9.358;2023-04-25T09:24:10;5.95;;;2.58;;
64986;SDS011;67903;52.108;9.358;2023-04-25T09:26:57;8.65;;;2.88;;
64986;SDS011;67903;52.108;9.358;2023-04-25T09:29:44;8.88;;;2.70;;
64986;SDS011;67903;52.108;9.358;2023-04-25T09:32:32;7.20;;;2.35;;
64986;SDS011;67903;52.108;9.358;2023-04-25T09:35:23;10.23;;;2.95;;
64986;SDS011;67903;52.108;9.358;2023-04-25T09:38:14;8.27;;;2.63;;
64986;SDS011;67903;52.108;9.358;2023-04-25T09:41:10;7.97;;;2.60;;
64986;SDS011;67903;52.108;9.358;2023-04-25T09:44:02;7.97;;;2.38;;
64986;SDS011;67903;52.108;9.358;2023-04-25T09:46:56;7.55;;;2.70;;
64986;SDS011;67903;52.108;9.358;2023-04-25T09:49:46;9.80;;;2.50;;
64986;SDS011;67903;52.108;9.358;2023-04-25T09:52:34;7.55;;;2.15;;
64986;SDS011;67903;52.108;9.358;2023-04-25T09:55:32;7.18;;;2.10;;
64986;SDS011;67903;52.108;9.358;2023-04-25T09:58:21;3.33;;;1.92;;
64986;SDS011;67903;52.108;9.358;2023-04-25T10:01:11;4.70;;;2.00;;
64986;SDS011;67903;52.108;9.358;2023-04-25T10:04:12;3.53;;;1.85;;
64986;SDS011;67903;52.108;9.358;2023-04-25T10:07:08;3.70;;;1.88;;
64986;SDS011;67903;52.108;9.358;2023-04-25T10:10:02;5.68;;;2.05;;
64986;SDS011;67903;52.108;9.358;2023-04-25T10:12:50;3.72;;;1.85;;
64986;SDS011;67903;52.108;9.358;2023-04-25T10:15:38;7.65;;;1.85;;
64986;SDS011;67903;52.108;9.358;2023-04-25T10:18:27;4.35;;;2.20;;
64986;SDS011;67903;52.108;9.358;2023-04-25T10:21:15;7.90;;;2.05;;
64986;SDS011;67903;52.108;9.358;2023-04-25T10:24:03;6.68;;;2.22;;
64986;SDS011;67903;52.108;9.358;2023-04-25T10:26:51;5.97;;;2.00;;
64986;SDS011;67903;52.108;9.358;2023-04-25T10:29:38;5.13;;;2.08;;
64986;SDS011;67903;52.108;9.358;2023-04-25T10:32:33;5.93;;;2.10;;
64986;SDS011;67903;52.108;9.358;2023-04-25T10:35:24;6.55;;;2.05;;
64986;SDS011;67903;52.108;9.358;2023-04-25T10:38:15;6.10;;;2.25;;
64986;SDS011;67903;52.108;9.358;2023-04-25T10:41:03;4.30;;;2.05;;
64986;SDS011;67903;52.108;9.358;2023-04-25T10:44:00;5.07;;;2.40;;
64986;SDS011;67903;52.108;9.358;2023-04-25T10:46:48;3.78;;;1.70;;
64986;SDS011;67903;52.108;9.358;2023-04-25T10:49:42;3.80;;;1.58;;
64986;SDS011;67903;52.108;9.358;2023-04-25T10:52:29;2.92;;;1.80;;
64986;SDS011;67903;52.108;9.358;2023-04-25T10:55:17;3.20;;;1.90;;
64986;SDS011;67903;52.108;9.358;2023-04-25T10:58:04;2.58;;;1.48;;
64986;SDS011;67903;52.108;9.358;2023-04-25T11:00:51;4.57;;;1.55;;
64986;SDS011;67903;52.108;9.358;2023-04-25T11:03:43;3.72;;;1.48;;
64986;SDS011;67903;52.108;9.358;2023-04-25T11:09:41;4.38;;;1.85;;
64986;SDS011;67903;52.108;9.358;2023-04-25T11:12:29;3.95;;;1.90;;
64986;SDS011;67903;52.108;9.358;2023-04-25T11:15:17;3.88;;;1.42;;
64986;SDS011;67903;52.108;9.358;2023-04-25T11:18:05;2.42;;;1.67;;
64986;SDS011;67903;52.108;9.358;2023-04-25T11:20:55;4.38;;;1.75;;
64986;SDS011;67903;52.108;9.358;2023-04-25T11:23:46;3.45;;;1.60;;
64986;SDS011;67903;52.108;9.358;2023-04-25T11:26:33;4.38;;;2.17;;
64986;SDS011;67903;52.108;9.358;2023-04-25T11:29:23;4.63;;;1.65;;
64986;SDS011;67903;52.108;9.358;2023-04-25T11:32:13;4.32;;;1.75;;
64986;SDS011;67903;52.108;9.358;2023-04-25T11:35:07;3.22;;;1.50;;
64986;SDS011;67903;52.108;9.358;2023-04-25T11:37:54;4.50;;;1.65;;
64986;SDS011;67903;52.108;9.358;2023-04-25T11:40:41;4.07;;;1.92;;
64986;SDS011;67903;52.108;9.358;2023-04-25T11:43:28;5.78;;;1.83;;
64986;SDS011;67903;52.108;9.358;2023-04-25T11:46:16;6.38;;;2.05;;
64986;SDS011;67903;52.108;9.358;2023-04-25T11:49:03;4.80;;;1.58;;
64986;SDS011;67903;52.108;9.358;2023-04-25T11:51:51;4.85;;;2.00;;
64986;SDS011;67903;52.108;9.358;2023-04-25T11:54:38;2.88;;;1.50;;
64986;SDS011;67903;52.108;9.358;2023-04-25T11:57:25;4.43;;;1.58;;
64986;SDS011;67903;52.108;9.358;2023-04-25T12:00:16;5.63;;;1.70;;
64986;SDS011;67903;52.108;9.358;2023-04-25T12:03:04;3.58;;;1.58;;
64986;SDS011;67903;52.108;9.358;2023-04-25T12:06:01;4.05;;;1.40;;
64986;SDS011;67903;52.108;9.358;2023-04-25T12:09:00;4.15;;;1.70;;
64986;SDS011;67903;52.108;9.358;2023-04-25T12:11:48;3.28;;;1.20;;
64986;SDS011;67903;52.108;9.358;2023-04-25T12:14:39;2.80;;;1.17;;
64986;SDS011;67903;52.108;9.358;2023-04-25T12:17:26;3.80;;;1.50;;
64986;SDS011;67903;52.108;9.358;2023-04-25T12:20:16;6.07;;;1.70;;
64986;SDS011;67903;52.108;9.358;2023-04-25T12:23:06;3.88;;;1.42;;
64986;SDS011;67903;52.108;9.358;2023-04-25T12:25:58;3.78;;;1.63;;
64986;SDS011;67903;52.108;9.358;2023-04-25T12:28:45;2.58;;;1.52;;
64986;SDS011;67903;52.108;9.358;2023-04-25T12:31:33;4.28;;;1.70;;
64986;SDS011;67903;52.108;9.358;2023-04-25T12:34:21;2.17;;;1.23;;
64986;SDS011;67903;52.108;9.358;2023-04-25T12:37:09;2.92;;;1.50;;
64986;SDS011;67903;52.108;9.358;2023-04-25T12:39:56;3.92;;;1.30;;
64986;SDS011;67903;52.108;9.358;2023-04-25T12:42:43;2.65;;;1.17;;
64986;SDS011;67903;52.108;9.358;2023-04-25T12:45:31;2.60;;;1.33;;
64986;SDS011;67903;52.108;9.358;2023-04-25T12:48:18;4.15;;;1.40;;
64986;SDS011;67903;52.108;9.358;2023-04-25T12:51:05;3.72;;;1.65;;
64986;SDS011;67903;52.108;9.358;2023-04-25T12:53:52;2.15;;;1.38;;
64986;SDS011;67903;52.108;9.358;2023-04-25T12:56:40;3.22;;;1.40;;
64986;SDS011;67903;52.108;9.358;2023-04-25T12:59:28;3.10;;;1.67;;
64986;SDS011;67903;52.108;9.358;2023-04-25T13:02:15;4.15;;;1.40;;
64986;SDS011;67903;52.108;9.358;2023-04-25T13:05:02;2.80;;;1.52;;
64986;SDS011;67903;52.108;9.358;2023-04-25T13:07:50;2.95;;;1.40;;
64986;SDS011;67903;52.108;9.358;2023-04-25T13:10:37;3.70;;;1.55;;
64986;SDS011;67903;52.108;9.358;2023-04-25T13:13:26;2.08;;;1.35;;
64986;SDS011;67903;52.108;9.358;2023-04-25T13:16:13;1.90;;;1.30;;
64986;SDS011;67903;52.108;9.358;2023-04-25T13:19:01;2.35;;;1.40;;
64986;SDS011;67903;52.108;9.358;2023-04-25T13:21:48;2.80;;;1.40;;
64986;SDS011;67903;52.108;9.358;2023-04-25T13:24:35;2.35;;;1.30;;
64986;SDS011;67903;52.108;9.358;2023-04-25T13:27:22;4.15;;;1.50;;
64986;SDS011;67903;52.108;9.358;2023-04-25T13:30:09;2.30;;;1.20;;
64986;SDS011;67903;52.108;9.358;2023-04-25T13:32:56;2.50;;;1.13;;
64986;SDS011;67903;52.108;9.358;2023-04-25T13:35:49;2.83;;;1.33;;
64986;SDS011;67903;52.108;9.358;2023-04-25T13:38:40;3.28;;;1.30;;
64986;SDS011;67903;52.108;9.358;2023-04-25T13:41:30;2.10;;;1.20;;
64986;SDS011;67903;52.108;9.358;2023-04-25T13:44:17;2.42;;;1.65;;
64986;SDS011;67903;52.108;9.358;2023-04-25T13:47:04;2.28;;;1.30;;
64986;SDS011;67903;52.108;9.358;2023-04-25T13:49:51;3.53;;;1.25;;
64986;SDS011;67903;52.108;9.358;2023-04-25T13:52:38;2.63;;;1.20;;
64986;SDS011;67903;52.108;9.358;2023-04-25T13:55:26;2.15;;;1.10;;
64986;SDS011;67903;52.108;9.358;2023-04-25T13:58:13;4.25;;;1.35;;
64986;SDS011;67903;52.108;9.358;2023-04-25T14:01:00;3.40;;;1.45;;
64986;SDS011;67903;52.108;9.358;2023-04-25T14:03:47;3.40;;;1.30;;
64986;SDS011;67903;52.108;9.358;2023-04-25T14:06:34;1.85;;;1.27;;
64986;SDS011;67903;52.108;9.358;2023-04-25T14:09:22;1.83;;;1.27;;
64986;SDS011;67903;52.108;9.358;2023-04-25T14:12:12;2.33;;;1.10;;
64986;SDS011;67903;52.108;9.358;2023-04-25T14:14:59;2.22;;;1.02;;
64986;SDS011;67903;52.108;9.358;2023-04-25T14:17:46;1.20;;;1.10;;
64986;SDS011;67903;52.108;9.358;2023-04-25T14:20:34;3.75;;;1.60;;
64986;SDS011;67903;52.108;9.358;2023-04-25T14:23:22;3.45;;;1.60;;
64986;SDS011;67903;52.108;9.358;2023-04-25T14:26:09;4.93;;;1.88;;
64986;SDS011;67903;52.108;9.358;2023-04-25T14:28:59;4.32;;;1.33;;
64986;SDS011;67903;52.108;9.358;2023-04-25T14:31:46;2.05;;;1.35;;
64986;SDS011;67903;52.108;9.358;2023-04-25T14:34:33;4.82;;;1.50;;
64986;SDS011;67903;52.108;9.358;2023-04-25T14:37:20;2.10;;;1.30;;
64986;SDS011;67903;52.108;9.358;2023-04-25T14:40:07;2.80;;;1.40;;
64986;SDS011;67903;52.108;9.358;2023-04-25T14:42:57;2.90;;;1.35;;
64986;SDS011;67903;52.108;9.358;2023-04-25T14:45:44;2.95;;;1.50;;
64986;SDS011;67903;52.108;9.358;2023-04-25T14:48:32;3.58;;;1.65;;
64986;SDS011;67903;52.108;9.358;2023-04-25T14:51:19;2.67;;;1.60;;
64986;SDS011;67903;52.108;9.358;2023-04-25T14:54:06;2.50;;;1.42;;
64986;SDS011;67903;52.108;9.358;2023-04-25T14:56:54;5.80;;;1.67;;
64986;SDS011;67903;52.108;9.358;2023-04-25T14:59:41;4.60;;;1.60;;
64986;SDS011;67903;52.108;9.358;2023-04-25T15:02:28;2.20;;;1.30;;
64986;SDS011;67903;52.108;9.358;2023-04-25T15:05:15;3.28;;;1.50;;
64986;SDS011;67903;52.108;9.358;2023-04-25T15:08:02;4.43;;;1.42;;
64986;SDS011;67903;52.108;9.358;2023-04-25T15:10:50;2.60;;;1.80;;
64986;SDS011;67903;52.108;9.358;2023-04-25T15:13:37;2.30;;;1.52;;
64986;SDS011;67903;52.108;9.358;2023-04-25T15:16:24;2.38;;;1.25;;
64986;SDS011;67903;52.108;9.358;2023-04-25T15:19:12;2.70;;;1.67;;
64986;SDS011;67903;52.108;9.358;2023-04-25T15:21:59;3.17;;;1.60;;
64986;SDS011;67903;52.108;9.358;2023-04-25T15:24:47;3.17;;;1.45;;
64986;SDS011;67903;52.108;9.358;2023-04-25T15:27:35;4.18;;;1.35;;
64986;SDS011;67903;52.108;9.358;2023-04-25T15:30:26;2.63;;;1.30;;
64986;SDS011;67903;52.108;9.358;2023-04-25T15:33:13;3.10;;;1.35;;
64986;SDS011;67903;52.108;9.358;2023-04-25T15:36:01;6.78;;;1.67;;
64986;SDS011;67903;52.108;9.358;2023-04-25T15:38:50;3.28;;;2.00;;
64986;SDS011;67903;52.108;9.358;2023-04-25T15:41:37;4.93;;;1.35;;
64986;SDS011;67903;52.108;9.358;2023-04-25T15:44:24;3.10;;;1.52;;
64986;SDS011;67903;52.108;9.358;2023-04-25T15:47:11;3.15;;;1.60;;
64986;SDS011;67903;52.108;9.358;2023-04-25T15:49:58;5.65;;;1.77;;
64986;SDS011;67903;52.108;9.358;2023-04-25T15:52:45;2.08;;;1.58;;
64986;SDS011;67903;52.108;9.358;2023-04-25T15:55:34;3.97;;;1.40;;
64986;SDS011;67903;52.108;9.358;2023-04-25T15:58:22;2.92;;;1.20;;
64986;SDS011;67903;52.108;9.358;2023-04-25T16:01:09;2.75;;;1.58;;
64986;SDS011;67903;52.108;9.358;2023-04-25T16:03:57;3.03;;;1.58;;
64986;SDS011;67903;52.108;9.358;2023-04-25T16:06:45;1.88;;;1.55;;
64986;SDS011;67903;52.108;9.358;2023-04-25T16:09:32;3.30;;;2.05;;
64986;SDS011;67903;52.108;9.358;2023-04-25T16:12:20;4.10;;;2.05;;
64986;SDS011;67903;52.108;9.358;2023-04-25T16:15:07;3.55;;;1.67;;
64986;SDS011;67903;52.108;9.358;2023-04-25T16:17:54;3.28;;;1.92;;
64986;SDS011;67903;52.108;9.358;2023-04-25T16:20:41;4.80;;;2.00;;
64986;SDS011;67903;52.108;9.358;2023-04-25T16:23:29;6.80;;;2.10;;
64986;SDS011;67903;52.108;9.358;2023-04-25T16:26:16;2.88;;;1.50;;
64986;SDS011;67903;52.108;9.358;2023-04-25T16:29:04;4.57;;;1.52;;
64986;SDS011;67903;52.108;9.358;2023-04-25T16:31:52;2.28;;;1.50;;
64986;SDS011;67903;52.108;9.358;2023-04-25T16:34:39;3.80;;;1.58;;
64986;SDS011;67903;52.108;9.358;2023-04-25T16:37:26;3.05;;;1.50;;
64986;SDS011;67903;52.108;9.358;2023-04-25T16:40:14;3.05;;;1.67;;
64986;SDS011;67903;52.108;9.358;2023-04-25T16:43:01;2.95;;;1.50;;
64986;SDS011;67903;52.108;9.358;2023-04-25T16:45:48;3.33;;;1.52;;
64986;SDS011;67903;52.108;9.358;2023-04-25T16:48:35;2.03;;;1.40;;
64986;SDS011;67903;52.108;9.358;2023-04-25T16:51:22;3.40;;;1.65;;
64986;SDS011;67903;52.108;9.358;2023-04-25T16:54:09;2.75;;;1.50;;
64986;SDS011;67903;52.108;9.358;2023-04-25T16:56:56;3.10;;;1.70;;
64986;SDS011;67903;52.108;9.358;2023-04-25T16:59:43;2.97;;;1.50;;
64986;SDS011;67903;52.108;9.358;2023-04-25T17:02:31;3.80;;;1.80;;